createdAt,value
2023-03-28T00:01:12.723Z,2.40
2023-03-28T00:03:41.150Z,2.20
2023-03-28T00:06:13.130Z,1.90
2023-03-28T00:08:41.156Z,1.70
2023-03-28T00:11:20.447Z,2.10
2023-03-28T00:14:01.108Z,2.00
2023-03-28T00:16:36.880Z,1.50
2023-03-28T00:19:12.754Z,2.00
2023-03-28T00:21:47.054Z,1.90
2023-03-28T00:24:18.905Z,1.90
2023-03-28T00:26:54.862Z,1.90
2023-03-28T00:29:26.233Z,2.40
2023-03-28T00:31:54.192Z,2.20
2023-03-28T00:34:22.083Z,2.10
2023-03-28T00:36:50.822Z,2.00
2023-03-28T00:39:18.687Z,2.20
2023-03-28T00:41:46.616Z,2.00
2023-03-28T00:44:53.718Z,2.20
2023-03-28T00:47:41.621Z,1.90
2023-03-28T00:50:48.857Z,2.00
2023-03-28T00:53:26.446Z,1.60
2023-03-28T00:56:07.398Z,1.80
2023-03-28T00:58:43.789Z,2.20
2023-03-28T01:01:18.181Z,2.50
2023-03-28T01:03:56.521Z,2.30
2023-03-28T01:06:26.055Z,2.10
2023-03-28T01:08:55.136Z,2.30
2023-03-28T01:11:24.964Z,2.60
2023-03-28T01:13:55.671Z,2.60
2023-03-28T01:16:23.957Z,2.20
2023-03-28T01:18:52.117Z,2.20
2023-03-28T01:21:54.990Z,2.00
2023-03-28T01:24:56.410Z,2.30
2023-03-28T01:27:55.514Z,2.40
2023-03-28T01:30:47.837Z,2.40
2023-03-28T01:33:34.160Z,2.30
2023-03-28T01:36:44.598Z,2.10
2023-03-28T01:39:32.120Z,1.90
2023-03-28T01:42:52.413Z,2.10
2023-03-28T01:45:45.368Z,2.00
2023-03-28T01:48:25.969Z,1.90
2023-03-28T01:51:05.875Z,1.70
2023-03-28T01:54:21.944Z,2.20
2023-03-28T01:57:13.836Z,2.30
2023-03-28T02:00:00.432Z,1.70
2023-03-28T02:02:52.655Z,2.00
2023-03-28T02:05:23.686Z,2.00
2023-03-28T02:07:52.379Z,2.30
2023-03-28T02:10:26.211Z,2.40
2023-03-28T02:13:03.673Z,2.00
2023-03-28T02:15:32.932Z,2.30
2023-03-28T02:18:12.475Z,2.40
2023-03-28T02:20:44.276Z,2.30
2023-03-28T02:23:20.662Z,2.20
2023-03-28T02:25:49.389Z,2.70
2023-03-28T02:28:19.562Z,2.30
2023-03-28T02:30:47.717Z,1.50
2023-03-28T02:33:45.621Z,2.00
2023-03-28T02:36:23.512Z,1.70
2023-03-28T02:39:11.616Z,1.70
2023-03-28T02:42:27.508Z,1.90
2023-03-28T02:45:10.611Z,1.70
2023-03-28T02:48:13.534Z,1.50
2023-03-28T02:51:11.487Z,1.30
2023-03-28T02:54:15.504Z,1.00
2023-03-28T02:57:02.330Z,1.00
2023-03-28T03:00:12.183Z,1.00
2023-03-28T03:02:43.886Z,0.90
2023-03-28T03:05:11.914Z,0.60
2023-03-28T03:07:40.161Z,0.90
2023-03-28T03:10:12.158Z,0.80
2023-03-28T03:12:41.259Z,0.70
2023-03-28T03:15:10.807Z,0.60
2023-03-28T03:17:38.791Z,0.50
2023-03-28T03:20:07.573Z,0.60
2023-03-28T03:22:36.570Z,0.30
2023-03-28T03:25:09.380Z,0.50
2023-03-28T03:27:37.522Z,0.30
2023-03-28T03:30:07.300Z,0.20
2023-03-28T03:32:35.148Z,0.40
2023-03-28T03:35:03.086Z,0.40
2023-03-28T03:37:30.872Z,0.30
2023-03-28T03:39:58.601Z,0.40
2023-03-28T03:42:26.408Z,0.20
2023-03-28T03:44:54.585Z,0.50
2023-03-28T03:47:22.393Z,0.20
2023-03-28T03:49:50.338Z,0.20
2023-03-28T03:52:18.132Z,0.20
2023-03-28T03:54:45.989Z,0.20
2023-03-28T03:57:14.407Z,0.20
2023-03-28T03:59:42.186Z,0.40
2023-03-28T04:02:10.022Z,0.50
2023-03-28T04:04:40.602Z,0.20
2023-03-28T04:07:08.525Z,0.80
2023-03-28T04:09:36.344Z,0.40
2023-03-28T04:12:06.709Z,0.30
2023-03-28T04:14:34.478Z,0.90
2023-03-28T04:17:04.657Z,0.60
2023-03-28T04:19:32.493Z,0.40
2023-03-28T04:22:00.309Z,0.80
2023-03-28T04:24:28.372Z,0.60
2023-03-28T04:26:56.303Z,0.60
2023-03-28T04:29:31.006Z,0.30
2023-03-28T04:31:59.862Z,0.40
2023-03-28T04:34:30.588Z,0.50
2023-03-28T04:37:02.856Z,0.30
2023-03-28T04:39:35.996Z,1.10
2023-03-28T04:42:05.710Z,0.70
2023-03-28T04:44:33.529Z,0.60
2023-03-28T04:47:01.677Z,0.90
2023-03-28T04:49:29.760Z,0.60
2023-03-28T04:51:57.518Z,0.60
2023-03-28T04:54:25.313Z,1.10
2023-03-28T04:56:55.736Z,0.70
2023-03-28T04:59:23.631Z,1.10
2023-03-28T05:01:51.733Z,1.50
2023-03-28T05:04:22.308Z,1.40
2023-03-28T05:06:50.922Z,1.00
2023-03-28T05:09:19.322Z,1.50
2023-03-28T05:11:47.184Z,1.10
2023-03-28T05:14:15.481Z,1.50
2023-03-28T05:16:43.465Z,0.70
2023-03-28T05:19:11.376Z,1.60
2023-03-28T05:21:40.776Z,1.40
2023-03-28T05:24:09.200Z,0.90
2023-03-28T05:26:37.148Z,1.10
2023-03-28T05:29:05.046Z,1.00
2023-03-28T05:31:32.955Z,0.80
2023-03-28T05:34:00.835Z,1.30
2023-03-28T05:36:29.045Z,0.90
2023-03-28T05:38:56.982Z,1.60
2023-03-28T05:41:24.880Z,0.60
2023-03-28T05:43:52.604Z,0.80
2023-03-28T05:46:20.531Z,0.70
2023-03-28T05:48:49.496Z,1.30
2023-03-28T05:51:17.789Z,1.10
2023-03-28T05:53:45.759Z,0.90
2023-03-28T05:56:13.630Z,0.90
2023-03-28T05:58:41.986Z,1.10
2023-03-28T06:01:10.092Z,0.80
2023-03-28T06:03:42.758Z,1.00
2023-03-28T06:06:10.732Z,1.00
2023-03-28T06:08:38.507Z,1.20
2023-03-28T06:11:07.040Z,1.30
2023-03-28T06:13:36.974Z,1.10
2023-03-28T06:16:06.119Z,1.10
2023-03-28T06:18:34.327Z,1.80
2023-03-28T06:21:02.506Z,1.40
2023-03-28T06:23:30.576Z,1.40
2023-03-28T06:25:58.680Z,1.00
2023-03-28T06:28:26.867Z,0.50
2023-03-28T06:30:54.671Z,1.40
2023-03-28T06:33:22.599Z,0.50
2023-03-28T06:35:50.393Z,0.70
2023-03-28T06:38:18.309Z,0.90
2023-03-28T06:40:46.541Z,1.10
2023-03-28T06:43:14.336Z,1.00
2023-03-28T06:45:42.158Z,0.90
2023-03-28T06:48:09.988Z,0.60
2023-03-28T06:50:37.822Z,0.40
2023-03-28T06:53:05.658Z,0.80
2023-03-28T06:55:35.701Z,0.50
2023-03-28T06:58:03.604Z,0.50
2023-03-28T07:00:31.617Z,0.80
2023-03-28T07:02:59.554Z,0.70
2023-03-28T07:05:28.082Z,0.60
2023-03-28T07:07:56.460Z,0.40
2023-03-28T07:10:24.415Z,0.60
2023-03-28T07:12:52.140Z,0.70
2023-03-28T07:15:20.030Z,0.70
2023-03-28T07:17:48.513Z,0.70
2023-03-28T07:20:16.474Z,0.60
2023-03-28T07:22:44.195Z,0.60
2023-03-28T07:25:12.586Z,0.40
2023-03-28T07:27:40.481Z,0.70
2023-03-28T07:30:10.100Z,0.90
2023-03-28T07:32:48.144Z,0.70
2023-03-28T07:35:22.323Z,1.00
2023-03-28T07:37:50.433Z,0.50
2023-03-28T07:40:18.559Z,0.50
2023-03-28T07:42:49.664Z,0.60
2023-03-28T07:45:17.657Z,0.50
2023-03-28T07:47:45.441Z,0.50
2023-03-28T07:50:13.315Z,0.80
2023-03-28T07:52:45.828Z,0.40
2023-03-28T07:55:15.101Z,0.70
2023-03-28T07:57:46.111Z,0.70
2023-03-28T08:00:15.674Z,0.30
2023-03-28T08:02:45.225Z,0.50
2023-03-28T08:05:13.376Z,0.50
2023-03-28T08:07:46.178Z,0.70
2023-03-28T08:10:14.758Z,0.20
2023-03-28T08:12:42.990Z,0.60
2023-03-28T08:15:11.561Z,0.50
2023-03-28T08:17:39.399Z,0.60
2023-03-28T08:20:10.384Z,0.60
2023-03-28T08:22:38.385Z,0.50
2023-03-28T08:25:07.813Z,0.50
2023-03-28T08:27:35.633Z,0.50
2023-03-28T08:30:03.932Z,0.30
2023-03-28T08:32:31.808Z,0.50
2023-03-28T08:35:02.950Z,0.70
2023-03-28T08:37:31.490Z,0.70
2023-03-28T08:40:00.657Z,0.40
2023-03-28T08:42:50.353Z,0.60
2023-03-28T08:45:39.674Z,0.40
2023-03-28T08:48:22.261Z,0.30
2023-03-28T08:51:11.637Z,0.60
2023-03-28T08:53:47.889Z,0.60
2023-03-28T08:56:17.162Z,0.80
2023-03-28T08:59:09.220Z,0.50
2023-03-28T09:01:37.448Z,0.40
2023-03-28T09:04:06.486Z,0.40
2023-03-28T09:06:45.492Z,0.50
2023-03-28T09:09:32.451Z,0.30
2023-03-28T09:12:20.289Z,0.30
2023-03-28T09:15:24.368Z,0.50
2023-03-28T09:18:28.847Z,0.40
2023-03-28T09:21:18.464Z,0.50
2023-03-28T09:24:08.370Z,0.30
2023-03-28T09:26:47.312Z,0.30
2023-03-28T09:29:24.889Z,0.30
2023-03-28T09:32:05.472Z,0.50
2023-03-28T09:34:49.691Z,0.60
2023-03-28T09:37:42.832Z,0.40
2023-03-28T09:40:29.145Z,0.50
2023-03-28T09:43:12.161Z,0.20
2023-03-28T09:45:54.295Z,0.30
2023-03-28T09:48:32.017Z,0.40
2023-03-28T09:51:02.976Z,0.60
2023-03-28T09:53:35.057Z,0.50
2023-03-28T09:56:13.099Z,0.20
2023-03-28T09:58:57.111Z,0.50
2023-03-28T10:01:49.944Z,0.30
2023-03-28T10:04:32.430Z,0.30
2023-03-28T10:07:09.731Z,0.50
2023-03-28T10:09:58.794Z,0.40
2023-03-28T10:12:39.241Z,0.50
2023-03-28T10:15:41.498Z,0.20
2023-03-28T10:18:18.188Z,0.50
2023-03-28T10:20:51.521Z,0.40
2023-03-28T10:23:23.756Z,0.30
2023-03-28T10:25:55.540Z,0.20
2023-03-28T10:28:37.527Z,0.50
2023-03-28T10:31:07.847Z,0.40
2023-03-28T10:33:43.078Z,0.50
2023-03-28T10:36:12.896Z,0.40
2023-03-28T10:38:44.260Z,0.40
2023-03-28T10:41:25.853Z,0.30
2023-03-28T10:43:56.539Z,0.60
2023-03-28T10:46:35.205Z,0.30
2023-03-28T10:49:14.191Z,0.20
2023-03-28T10:51:44.544Z,0.50
2023-03-28T10:55:07.035Z,0.50
2023-03-28T10:58:03.813Z,0.50
2023-03-28T11:01:00.211Z,0.60
2023-03-28T11:03:44.854Z,0.20
2023-03-28T11:06:22.909Z,0.30
2023-03-28T11:09:11.006Z,0.40
2023-03-28T11:11:51.656Z,0.60
2023-03-28T11:14:47.340Z,0.30
2023-03-28T11:17:41.335Z,0.20
2023-03-28T11:20:25.008Z,0.20
2023-03-28T11:23:44.438Z,0.30
2023-03-28T11:26:22.147Z,0.80
2023-03-28T11:29:25.928Z,0.20
2023-03-28T11:32:18.402Z,0.30
2023-03-28T11:35:03.745Z,0.30
2023-03-28T11:37:55.340Z,0.10
2023-03-28T11:40:34.978Z,0.30
2023-03-28T11:43:07.049Z,0.20
2023-03-28T11:45:51.408Z,0.30
2023-03-28T11:48:55.326Z,0.50
2023-03-28T11:52:04.073Z,0.40
2023-03-28T11:55:14.448Z,0.80
2023-03-28T11:58:05.681Z,0.40
2023-03-28T12:00:45.378Z,0.20
2023-03-28T12:03:29.338Z,0.20
2023-03-28T12:06:12.192Z,0.20
2023-03-28T12:08:55.256Z,0.20
2023-03-28T12:11:36.881Z,0.20
2023-03-28T12:14:21.251Z,0.30
2023-03-28T12:16:53.774Z,0.20
2023-03-28T12:19:41.427Z,0.10
2023-03-28T12:22:21.903Z,0.30
2023-03-28T12:25:24.817Z,0.50
2023-03-28T12:28:29.111Z,0.40
2023-03-28T12:31:16.487Z,0.80
2023-03-28T12:33:55.297Z,0.40
2023-03-28T12:36:50.430Z,0.50
2023-03-28T12:39:43.553Z,0.20
2023-03-28T12:42:19.435Z,0.60
2023-03-28T12:45:04.960Z,0.20
2023-03-28T12:47:41.845Z,0.30
2023-03-28T12:50:16.226Z,0.20
2023-03-28T12:52:46.672Z,0.50
2023-03-28T12:55:26.724Z,0.30
2023-03-28T12:58:21.868Z,0.30
2023-03-28T13:00:59.713Z,0.20
2023-03-28T13:04:04.202Z,0.40
2023-03-28T13:07:12.692Z,0.30
2023-03-28T13:10:07.294Z,0.50
2023-03-28T13:12:55.448Z,0.40
2023-03-28T13:15:33.729Z,0.40
2023-03-28T13:18:22.492Z,0.40
2023-03-28T13:20:53.136Z,0.50
2023-03-28T13:23:34.553Z,0.20
2023-03-28T13:26:10.028Z,0.50
2023-03-28T13:29:01.455Z,0.50
2023-03-28T13:31:33.172Z,0.40
2023-03-28T13:34:03.733Z,0.80
2023-03-28T13:36:36.058Z,0.50
2023-03-28T13:39:23.125Z,0.40
2023-03-28T13:41:52.252Z,0.30
2023-03-28T13:44:30.236Z,0.40
2023-03-28T13:46:58.375Z,0.30
2023-03-28T13:49:55.457Z,0.40
2023-03-28T13:52:25.731Z,0.40
2023-03-28T13:55:02.188Z,0.30
2023-03-28T13:57:30.403Z,0.20
2023-03-28T14:00:06.977Z,0.30
2023-03-28T14:02:34.801Z,0.00
2023-03-28T14:05:28.097Z,0.20
2023-03-28T14:08:27.122Z,0.20
2023-03-28T14:10:57.089Z,0.50
2023-03-28T14:13:30.240Z,0.60
2023-03-28T14:15:58.277Z,0.50
2023-03-28T14:18:36.629Z,1.30
2023-03-28T14:21:07.853Z,0.30
2023-03-28T14:23:39.903Z,0.20
2023-03-28T14:26:18.672Z,0.20
2023-03-28T14:28:47.261Z,0.40
2023-03-28T14:31:32.213Z,0.70
2023-03-28T14:34:35.266Z,0.30
2023-03-28T14:37:14.764Z,0.40
2023-03-28T14:39:43.431Z,0.20
2023-03-28T14:42:21.180Z,0.20
2023-03-28T14:44:54.373Z,0.30
2023-03-28T14:47:33.965Z,0.20
2023-03-28T14:50:03.839Z,0.10
2023-03-28T14:52:36.689Z,0.40
2023-03-28T14:55:06.298Z,0.50
2023-03-28T14:57:35.058Z,0.60
2023-03-28T15:00:12.620Z,0.30
2023-03-28T15:02:44.695Z,0.20
2023-03-28T15:05:17.780Z,0.20
2023-03-28T15:07:59.809Z,0.30
2023-03-28T15:10:29.380Z,0.10
2023-03-28T15:13:23.700Z,0.20
2023-03-28T15:15:55.969Z,0.20
2023-03-28T15:18:31.183Z,0.10
2023-03-28T15:21:04.037Z,0.30
2023-03-28T15:23:56.327Z,0.40
2023-03-28T15:26:34.071Z,0.20
2023-03-28T15:29:05.425Z,0.30
2023-03-28T15:31:37.911Z,0.10
2023-03-28T15:34:19.833Z,0.30
2023-03-28T15:37:00.169Z,0.20
2023-03-28T15:39:32.209Z,0.30
2023-03-28T15:42:18.374Z,0.10
2023-03-28T15:45:12.205Z,0.40
2023-03-28T15:47:41.486Z,0.20
2023-03-28T15:50:36.351Z,0.30
2023-03-28T15:53:15.563Z,0.30
2023-03-28T15:55:44.940Z,0.20
2023-03-28T15:58:17.420Z,0.40
2023-03-28T16:00:53.111Z,0.30
2023-03-28T16:03:20.991Z,0.40
2023-03-28T16:05:53.665Z,0.10
2023-03-28T16:08:38.892Z,0.40
2023-03-28T16:11:14.920Z,0.30
2023-03-28T16:13:42.955Z,0.40
2023-03-28T16:16:29.420Z,0.20
2023-03-28T16:18:57.273Z,0.40
2023-03-28T16:21:25.039Z,0.40
2023-03-28T16:23:52.827Z,0.30
2023-03-28T16:26:20.631Z,0.50
2023-03-28T16:28:48.484Z,0.40
2023-03-28T16:31:16.532Z,0.40
2023-03-28T16:33:44.518Z,0.50
2023-03-28T16:36:13.497Z,0.80
2023-03-28T16:38:41.310Z,0.50
2023-03-28T16:41:09.568Z,0.50
2023-03-28T16:43:38.826Z,0.60
2023-03-28T16:46:08.810Z,0.60
2023-03-28T16:48:37.966Z,0.60
2023-03-28T16:51:09.016Z,0.20
2023-03-28T16:53:39.828Z,0.30
2023-03-28T16:56:12.419Z,0.50
2023-03-28T16:58:40.260Z,1.20
2023-03-28T17:01:15.638Z,0.70
2023-03-28T17:03:43.865Z,0.80
2023-03-28T17:06:13.077Z,0.40
2023-03-28T17:08:41.168Z,0.70
2023-03-28T17:11:12.376Z,0.70
2023-03-28T17:13:43.123Z,0.80
2023-03-28T17:16:11.406Z,0.70
2023-03-28T17:18:39.530Z,0.70
2023-03-28T17:21:12.483Z,0.90
2023-03-28T17:23:43.273Z,0.40
2023-03-28T17:26:12.348Z,0.50
2023-03-28T17:28:43.382Z,0.40
2023-03-28T17:31:16.949Z,0.40
2023-03-28T17:33:47.890Z,0.60
2023-03-28T17:36:23.559Z,0.70
2023-03-28T17:38:55.350Z,0.60
2023-03-28T17:41:25.660Z,1.00
2023-03-28T17:43:56.617Z,1.00
2023-03-28T17:46:25.046Z,1.00
2023-03-28T17:48:54.259Z,1.30
2023-03-28T17:51:23.159Z,1.20
2023-03-28T17:53:51.644Z,1.40
2023-03-28T17:56:20.177Z,0.80
2023-03-28T17:58:48.713Z,1.00
2023-03-28T18:01:19.489Z,1.20
2023-03-28T18:03:47.544Z,0.80
2023-03-28T18:06:15.597Z,1.40
2023-03-28T18:08:45.017Z,1.70
2023-03-28T18:11:17.774Z,2.00
2023-03-28T18:13:46.773Z,1.60
2023-03-28T18:16:18.254Z,1.30
2023-03-28T18:18:46.849Z,1.10
2023-03-28T18:21:15.145Z,1.50
2023-03-28T18:23:43.653Z,1.90
2023-03-28T18:26:12.259Z,2.00
2023-03-28T18:28:41.581Z,2.00
2023-03-28T18:31:16.704Z,1.70
2023-03-28T18:33:45.395Z,2.10
2023-03-28T18:36:14.621Z,2.00
2023-03-28T18:38:44.572Z,2.40
2023-03-28T18:41:13.093Z,2.40
2023-03-28T18:43:43.249Z,2.20
2023-03-28T18:46:15.491Z,1.90
2023-03-28T18:48:45.460Z,1.50
2023-03-28T18:51:13.998Z,1.50
2023-03-28T18:53:46.354Z,2.20
2023-03-28T18:56:14.489Z,2.90
2023-03-28T18:58:43.965Z,1.70
2023-03-28T19:01:12.952Z,2.40
2023-03-28T19:03:42.624Z,1.80
2023-03-28T19:06:15.016Z,2.80
2023-03-28T19:08:45.082Z,2.80
2023-03-28T19:11:16.816Z,2.10
2023-03-28T19:13:44.947Z,2.70
2023-03-28T19:16:19.388Z,2.30
2023-03-28T19:18:48.583Z,2.30
2023-03-28T19:21:17.311Z,2.10
2023-03-28T19:23:51.853Z,1.80
2023-03-28T19:26:19.902Z,2.40
2023-03-28T19:28:50.844Z,2.10
2023-03-28T19:31:21.947Z,2.10
2023-03-28T19:33:56.473Z,1.90
2023-03-28T19:36:24.744Z,1.60
2023-03-28T19:38:52.818Z,2.20
2023-03-28T19:41:24.514Z,1.60
2023-03-28T19:43:52.688Z,1.70
2023-03-28T19:46:33.289Z,1.80
2023-03-28T19:49:06.405Z,2.10
2023-03-28T19:51:36.117Z,2.30
2023-03-28T19:54:04.900Z,1.80
2023-03-28T19:56:32.896Z,2.00
2023-03-28T19:59:12.186Z,2.20
2023-03-28T20:01:40.182Z,1.80
2023-03-28T20:04:08.759Z,1.70
2023-03-28T20:06:36.827Z,1.30
2023-03-28T20:09:05.430Z,2.00
2023-03-28T20:11:33.722Z,2.40
2023-03-28T20:14:01.589Z,1.90
2023-03-28T20:16:29.463Z,2.20
2023-03-28T20:18:58.556Z,2.00
2023-03-28T20:21:28.673Z,2.10
2023-03-28T20:23:58.579Z,2.80
2023-03-28T20:26:28.728Z,2.50
2023-03-28T20:28:59.670Z,2.50
2023-03-28T20:31:35.577Z,1.70
2023-03-28T20:34:03.414Z,2.00
2023-03-28T20:36:34.637Z,2.10
2023-03-28T20:39:03.457Z,1.20
2023-03-28T20:41:31.513Z,1.50
2023-03-28T20:44:03.652Z,1.90
2023-03-28T20:46:36.949Z,1.70
2023-03-28T20:49:08.299Z,1.10
2023-03-28T20:51:39.226Z,1.20
2023-03-28T20:54:07.637Z,1.30
2023-03-28T20:56:36.363Z,0.60
2023-03-28T20:59:04.836Z,1.10
2023-03-28T21:01:39.857Z,1.80
2023-03-28T21:04:08.891Z,1.40
2023-03-28T21:06:38.395Z,1.20
2023-03-28T21:09:10.065Z,1.30
2023-03-28T21:11:39.779Z,1.00
2023-03-28T21:14:11.631Z,1.00
2023-03-28T21:16:40.024Z,0.90
2023-03-28T21:19:08.224Z,1.30
2023-03-28T21:21:36.282Z,1.00
2023-03-28T21:24:05.269Z,1.10
2023-03-28T21:26:33.080Z,1.10
2023-03-28T21:29:00.904Z,0.80
2023-03-28T21:31:29.971Z,0.80
2023-03-28T21:33:59.821Z,1.10
2023-03-28T21:36:28.319Z,1.20
2023-03-28T21:38:57.073Z,1.10
2023-03-28T21:41:30.847Z,0.70
2023-03-28T21:43:58.703Z,0.90
2023-03-28T21:46:27.358Z,1.10
2023-03-28T21:48:55.252Z,1.60
2023-03-28T21:51:23.596Z,1.10
2023-03-28T21:53:52.404Z,0.80
2023-03-28T21:56:20.256Z,1.10
2023-03-28T21:58:48.033Z,0.70
2023-03-28T22:01:18.501Z,0.50
2023-03-28T22:03:48.197Z,1.20
2023-03-28T22:06:18.538Z,0.90
2023-03-28T22:08:51.967Z,1.50
2023-03-28T22:11:30.802Z,1.00
2023-03-28T22:14:04.928Z,0.60
2023-03-28T22:16:37.583Z,0.80
2023-03-28T22:19:08.807Z,0.70
2023-03-28T22:21:37.555Z,0.60
2023-03-28T22:24:13.048Z,1.30
2023-03-28T22:26:42.161Z,1.30
2023-03-28T22:29:10.625Z,0.60
2023-03-28T22:31:38.565Z,0.40
2023-03-28T22:34:07.501Z,0.70
2023-03-28T22:36:35.641Z,0.70
2023-03-28T22:39:03.498Z,0.60
2023-03-28T22:41:32.090Z,0.90
2023-03-28T22:43:59.996Z,0.80
2023-03-28T22:46:27.827Z,0.70
2023-03-28T22:48:58.718Z,0.70
2023-03-28T22:51:28.190Z,0.60
2023-03-28T22:54:02.890Z,0.50
2023-03-28T22:56:36.935Z,0.70
2023-03-28T22:59:07.483Z,0.50
2023-03-28T23:01:35.511Z,0.60
2023-03-28T23:04:03.403Z,0.30
2023-03-28T23:06:35.283Z,1.00
2023-03-28T23:09:03.137Z,0.30
2023-03-28T23:11:31.055Z,0.60
2023-03-28T23:13:58.855Z,0.10
2023-03-28T23:16:26.713Z,0.50
2023-03-28T23:18:54.499Z,0.30
2023-03-28T23:21:23.084Z,0.80
2023-03-28T23:23:51.686Z,0.80
2023-03-28T23:26:19.966Z,0.90
2023-03-28T23:28:48.125Z,0.70
2023-03-28T23:31:16.228Z,1.10
2023-03-28T23:33:46.421Z,0.60
2023-03-28T23:36:15.643Z,0.50
2023-03-28T23:38:43.521Z,0.60
2023-03-28T23:41:11.338Z,0.80
2023-03-28T23:43:39.756Z,0.50
2023-03-28T23:46:07.985Z,0.60
2023-03-28T23:48:36.307Z,0.50
2023-03-28T23:51:04.644Z,0.60
2023-03-28T23:53:32.521Z,0.80
2023-03-28T23:56:00.458Z,0.80
2023-03-28T23:58:28.251Z,1.00
